Time;durP1;ratioP1;P1;durP2;ratioP2;P2;SDS_P1;SDS_P2;PMS_P1;PMS_P2;Temp;Humidity;BMP_temperature;BMP_pressure;BME280_temperature;BME280_humidity;BME280_pressure;Samples;Min_cycle;Max_cycle;Signal;HPM_P1;HPM_P2
2022/11/21 08:08:14;;;;;;;11.47;9.23;;;3.90;99.90;;;;;;5140716;27;20278;-82
2022/11/21 08:10:44;;;;;;;2.83;2.57;;;3.90;99.90;;;;;;5121743;28;20413;-80
2022/11/21 08:13:11;;;;;;;1.80;1.70;;;3.90;99.90;;;;;;5138253;28;20778;-80
2022/11/21 08:15:37;;;;;;;2.30;2.10;;;4.30;99.90;;;;;;5136852;28;20839;-80
2022/11/21 08:18:10;;;;;;;3.20;1.90;;;5.20;99.90;;;;;;5135736;27;20405;-80
2022/11/21 08:20:36;;;;;;;3.90;1.80;;;5.50;99.90;;;;;;5135497;27;20159;-79
2022/11/21 08:23:02;;;;;;;2.00;1.67;;;6.10;99.90;;;;;;5133070;28;20516;-80
2022/11/21 08:25:28;;;;;;;1.67;1.37;;;6.20;99.90;;;;;;5132947;28;20202;-80
2022/11/21 08:27:57;;;;;;;2.57;1.50;;;6.50;99.90;;;;;;5132525;28;20248;-80
2022/11/21 08:30:23;;;;;;;2.60;1.30;;;6.70;99.90;;;;;;5132851;28;20173;-80
2022/11/21 08:32:49;;;;;;;4.17;1.43;;;6.90;99.90;;;;;;5133189;27;20171;-80
2022/11/21 08:35:15;;;;;;;5.17;2.53;;;6.70;99.90;;;;;;5132195;27;20196;-80
2022/11/21 08:37:41;;;;;;;2.53;1.10;;;7.00;99.90;;;;;;5130513;28;20177;-80
2022/11/21 08:40:07;;;;;;;3.17;1.20;;;7.20;99.90;;;;;;5137049;28;20176;-81
2022/11/21 08:42:32;;;;;;;2.37;1.30;;;7.20;99.90;;;;;;5139149;28;20262;-81
2022/11/21 08:44:58;;;;;;;3.27;1.40;;;7.30;99.90;;;;;;5140296;27;20229;-80
2022/11/21 08:47:24;;;;;;;2.00;0.90;;;7.40;99.90;;;;;;5138246;28;20199;-81
2022/11/21 08:49:49;;;;;;;2.20;1.00;;;7.60;99.90;;;;;;5140458;27;20223;-81
2022/11/21 08:52:16;;;;;;;2.93;1.07;;;7.80;99.90;;;;;;5139853;27;20196;-81
2022/11/21 08:54:43;;;;;;;1.93;1.03;;;7.50;99.90;;;;;;5138478;28;20174;-81
2022/11/21 08:57:09;;;;;;;2.50;1.47;;;7.50;99.90;;;;;;5139673;27;20232;-82
2022/11/21 08:59:35;;;;;;;1.50;0.77;;;7.60;99.90;;;;;;5138849;27;20175;-81
2022/11/21 09:02:01;;;;;;;4.50;3.50;;;7.40;99.90;;;;;;5137207;28;20177;-81
2022/11/21 09:04:26;;;;;;;2.03;0.90;;;7.40;99.90;;;;;;5137343;28;20183;-81
2022/11/21 09:06:52;;;;;;;1.70;0.90;;;7.50;99.90;;;;;;5138452;27;20211;-82
2022/11/21 09:09:17;;;;;;;2.87;0.90;;;7.50;99.90;;;;;;5139991;28;20179;-80
2022/11/21 09:11:43;;;;;;;2.47;1.30;;;7.40;99.90;;;;;;5138522;28;20189;-80
2022/11/21 09:19:37;;;;;;;2.20;1.13;;;7.90;99.90;;;;;;5124450;28;20170;-80
2022/11/21 09:22:03;;;;;;;2.93;1.00;;;8.10;99.90;;;;;;5125091;28;20249;-80
2022/11/21 09:24:28;;;;;;;1.20;0.87;;;8.30;99.90;;;;;;5123362;28;20175;-79
2022/11/21 09:26:54;;;;;;;4.43;1.23;;;8.40;99.90;;;;;;5124297;28;20284;-79
2022/11/21 09:29:20;;;;;;;3.17;1.37;;;8.50;99.90;;;;;;5122582;28;20171;-79
2022/11/21 09:31:45;;;;;;;2.57;1.50;;;8.30;99.90;;;;;;5122264;28;20190;-80
2022/11/21 09:34:11;;;;;;;4.50;1.77;;;8.60;99.90;;;;;;5122871;28;20164;-79
2022/11/21 09:36:37;;;;;;;2.37;1.20;;;8.80;99.90;;;;;;5121338;28;20192;-80
2022/11/21 09:39:03;;;;;;;4.07;2.13;;;8.60;99.90;;;;;;5120899;28;20590;-80
2022/11/21 09:44:41;;;;;;;2.60;1.30;;;8.60;99.90;;;;;;5123160;28;20607;-79
2022/11/21 09:47:29;;;;;;;3.13;1.20;;;9.00;99.90;;;;;;5123139;28;20249;-80
2022/11/21 09:50:12;;;;;;;1.63;1.00;;;9.00;99.90;;;;;;5121007;28;20614;-80
2022/11/21 09:52:45;;;;;;;11.23;7.17;;;8.00;99.90;;;;;;5123517;28;20191;-81
2022/11/21 09:55:33;;;;;;;5.77;3.13;;;8.20;99.90;;;;;;5122733;28;20166;-81
2022/11/21 09:58:08;;;;;;;7.13;5.67;;;8.30;99.90;;;;;;5125605;28;20258;-81
2022/11/21 10:00:33;;;;;;;7.30;3.23;;;8.30;99.90;;;;;;5126191;28;20163;-81
2022/11/21 10:03:00;;;;;;;8.20;7.07;;;8.20;99.90;;;;;;5128053;28;20255;-81
2022/11/21 10:05:52;;;;;;;2.57;1.80;;;7.70;99.90;;;;;;5125641;28;20207;-81
2022/11/21 10:08:29;;;;;;;2.80;1.37;;;6.90;99.90;;;;;;5104266;28;20199;-80
2022/11/21 10:11:34;;;;;;;2.50;1.00;;;6.40;99.90;;;;;;5122008;28;20179;-80
2022/11/21 10:14:26;;;;;;;1.70;0.90;;;6.00;99.90;;;;;;5122163;28;20205;-80
2022/11/21 10:17:08;;;;;;;2.67;1.27;;;5.90;99.90;;;;;;5120470;28;20191;-81
2022/11/21 10:19:59;;;;;;;3.57;1.03;;;5.90;99.90;;;;;;5120778;28;20175;-80
2022/11/21 10:22:42;;;;;;;3.90;1.23;;;5.70;99.90;;;;;;5118213;28;20188;-81
2022/11/21 10:25:21;;;;;;;2.40;1.30;;;5.40;99.90;;;;;;5120733;28;20255;-81
2022/11/21 10:27:51;;;;;;;2.83;1.13;;;5.40;99.90;;;;;;5121434;28;20208;-80
2022/11/21 10:30:19;;;;;;;1.40;0.90;;;5.10;99.90;;;;;;5119275;28;20175;-80
2022/11/21 10:33:00;;;;;;;2.50;1.33;;;5.00;99.90;;;;;;5121955;28;20178;-80
2022/11/21 10:35:42;;;;;;;5.20;3.00;;;4.80;99.90;;;;;;5120429;28;20193;-80
2022/11/21 10:38:21;;;;;;;4.43;1.37;;;4.60;99.90;;;;;;5121777;28;20168;-80
2022/11/21 10:40:58;;;;;;;1.77;1.27;;;4.60;99.90;;;;;;5120250;28;20179;-80
2022/11/21 10:46:11;;;;;;;1.43;1.20;;;4.50;99.90;;;;;;5120237;28;20253;-81
2022/11/21 10:48:36;;;;;;;3.13;1.60;;;4.30;99.90;;;;;;5119301;28;20177;-80
2022/11/21 10:51:32;;;;;;;2.30;1.20;;;4.30;99.90;;;;;;5119076;28;20658;-80
2022/11/21 10:56:48;;;;;;;2.77;1.20;;;4.20;99.90;;;;;;5121190;28;20198;-81
2022/11/21 10:59:34;;;;;;;1.80;1.07;;;4.40;99.90;;;;;;5120041;28;20179;-80
2022/11/21 11:02:21;;;;;;;1.30;1.20;;;4.60;99.90;;;;;;5121397;28;20421;-81
2022/11/21 11:04:46;;;;;;;2.00;1.20;;;4.80;99.90;;;;;;5121231;28;20157;-81
2022/11/21 11:07:38;;;;;;;2.17;1.30;;;5.10;99.90;;;;;;5120737;28;20201;-81
2022/11/21 11:10:23;;;;;;;5.93;1.43;;;5.30;99.90;;;;;;5117120;28;20182;-80
2022/11/21 11:15:38;;;;;;;2.87;1.47;;;6.70;99.90;;;;;;5118457;28;20226;-81
2022/11/21 11:18:05;;;;;;;3.70;1.37;;;7.00;99.90;;;;;;5116060;28;20211;-81
2022/11/21 11:20:42;;;;;;;3.33;1.60;;;7.80;99.90;;;;;;5116985;28;20184;-81
2022/11/21 11:23:26;;;;;;;4.30;1.67;;;8.40;99.90;;;;;;5115230;28;20203;-80
2022/11/21 11:25:56;;;;;;;2.27;1.40;;;9.00;99.90;;;;;;5115590;28;20668;-80
2022/11/21 11:28:23;;;;;;;3.67;1.87;;;8.90;99.90;;;;;;5116160;28;20199;-80
2022/11/21 11:30:50;;;;;;;2.53;1.30;;;9.30;99.90;;;;;;5114336;28;20220;-80
2022/11/21 11:33:31;;;;;;;2.27;1.13;;;8.70;99.90;;;;;;5115829;28;20291;-80
2022/11/21 11:36:14;;;;;;;3.93;2.17;;;7.50;99.90;;;;;;5116939;28;20183;-81
2022/11/21 11:38:45;;;;;;;2.17;1.23;;;6.80;99.90;;;;;;5120975;28;20170;-81
2022/11/21 11:47:41;;;;;;;1.17;0.93;;;7.00;99.90;;;;;;5121957;28;20294;-81
2022/11/21 11:50:21;;;;;;;3.23;1.37;;;7.00;99.90;;;;;;5120750;28;20166;-81
2022/11/21 11:53:05;;;;;;;2.57;0.80;;;7.40;99.90;;;;;;5120574;28;20218;-82
2022/11/21 11:55:45;;;;;;;3.40;1.87;;;8.20;99.90;;;;;;5121760;28;20191;-81
2022/11/21 11:58:37;;;;;;;2.60;1.53;;;8.60;99.90;;;;;;5121674;28;20181;-80
2022/11/21 12:01:09;;;;;;;21.90;10.33;;;9.40;99.90;;;;;;5115051;28;20656;-82
2022/11/21 12:03:53;;;;;;;7.57;3.83;;;9.60;99.90;;;;;;5120139;28;20629;-82
2022/11/21 12:06:24;;;;;;;9.87;4.13;;;10.00;99.90;;;;;;5120398;28;20668;-81
2022/11/21 12:08:55;;;;;;;11.53;3.87;;;10.30;99.90;;;;;;5120965;28;20184;-81
2022/11/21 12:17:55;;;;;;;3.20;1.77;;;9.70;99.90;;;;;;5123294;28;20171;-81
2022/11/21 12:20:32;;;;;;;4.03;1.67;;;9.40;99.90;;;;;;5121033;28;20182;-81
2022/11/21 12:22:58;;;;;;;4.27;2.00;;;8.40;99.90;;;;;;5123768;28;20512;-81
2022/11/21 12:25:28;;;;;;;6.23;3.17;;;7.60;99.90;;;;;;5122632;28;20188;-81
2022/11/21 12:27:56;;;;;;;4.33;1.20;;;7.20;99.90;;;;;;5121860;28;20233;-81
2022/11/21 12:30:43;;;;;;;2.60;1.43;;;6.70;99.90;;;;;;5125058;28;20174;-80
2022/11/21 12:33:21;;;;;;;10.37;4.50;;;6.60;99.90;;;;;;5124653;28;20160;-81
2022/11/21 12:36:11;;;;;;;3.37;1.30;;;6.40;99.90;;;;;;5120306;28;20195;-81
2022/11/21 12:38:55;;;;;;;2.03;1.03;;;6.40;99.90;;;;;;5120616;28;20174;-81
2022/11/21 12:44:33;;;;;;;4.00;1.73;;;6.70;99.90;;;;;;5102534;28;20189;-81
2022/11/21 12:47:08;;;;;;;5.57;1.60;;;7.00;99.90;;;;;;5121553;28;20652;-81
2022/11/21 12:55:36;;;;;;;6.60;3.07;;;7.20;99.90;;;;;;5127220;28;20204;-81
2022/11/21 12:58:23;;;;;;;2.90;1.60;;;7.30;99.90;;;;;;5122669;28;20660;-81
2022/11/21 13:01:11;;;;;;;11.23;6.53;;;7.20;99.90;;;;;;5122985;28;20267;-81
2022/11/21 13:03:48;;;;;;;4.70;3.50;;;7.10;99.90;;;;;;5124367;28;20176;-81
2022/11/21 13:06:26;;;;;;;7.73;4.70;;;7.10;99.90;;;;;;5126743;28;20232;-81
2022/11/21 13:08:54;;;;;;;4.97;1.67;;;7.00;99.90;;;;;;5127304;28;20293;-82
2022/11/21 13:14:36;;;;;;;12.87;5.70;;;6.80;99.90;;;;;;5132469;28;20176;-81
2022/11/21 13:17:15;;;;;;;9.70;5.57;;;6.80;99.90;;;;;;5124669;28;20190;-82
2022/11/21 13:20:11;;;;;;;5.83;3.20;;;6.90;99.90;;;;;;5124982;28;20169;-81
2022/11/21 13:22:37;;;;;;;11.43;5.53;;;6.90;99.90;;;;;;5123711;28;20178;-82
2022/11/21 13:25:31;;;;;;;7.03;3.90;;;6.90;99.90;;;;;;5125142;28;20176;-81
2022/11/21 13:28:18;;;;;;;10.00;4.17;;;6.80;99.90;;;;;;5125499;28;20211;-81
2022/11/21 13:30:46;;;;;;;5.03;3.37;;;7.00;99.90;;;;;;5125741;28;20263;-81
2022/11/21 13:33:44;;;;;;;5.13;2.23;;;7.10;99.90;;;;;;5123335;28;20184;-81
2022/11/21 13:36:33;;;;;;;4.07;1.50;;;7.20;99.90;;;;;;5124376;28;20242;-81
2022/11/21 13:38:59;;;;;;;5.17;2.50;;;7.20;99.90;;;;;;5116542;28;20646;-81
2022/11/21 13:44:31;;;;;;;2.70;2.10;;;7.20;99.90;;;;;;5123595;28;20538;-81
2022/11/21 13:47:08;;;;;;;2.43;1.33;;;7.20;99.90;;;;;;5119717;28;20208;-81
2022/11/21 13:49:43;;;;;;;2.07;1.47;;;7.00;99.90;;;;;;5126020;27;20176;-80
2022/11/21 13:52:23;;;;;;;7.70;2.70;;;7.00;99.90;;;;;;5137290;27;20172;-79
2022/11/21 13:54:53;;;;;;;4.77;2.20;;;7.00;99.90;;;;;;5136810;27;20168;-80
2022/11/21 13:57:28;;;;;;;4.70;2.40;;;6.90;99.90;;;;;;5136787;27;20185;-80
2022/11/21 14:00:13;;;;;;;14.73;8.50;;;6.90;99.90;;;;;;5137325;27;20201;-80
2022/11/21 14:03:05;;;;;;;5.70;1.80;;;6.80;99.90;;;;;;5138255;27;20159;-81
2022/11/21 14:06:10;;;;;;;4.43;2.10;;;6.50;99.90;;;;;;5138762;27;20195;-80
2022/11/21 14:08:36;;;;;;;3.67;1.80;;;6.50;99.90;;;;;;5138887;27;20182;-80
2022/11/21 14:11:28;;;;;;;4.93;2.10;;;6.40;99.90;;;;;;5137536;27;20176;-80
2022/11/21 14:13:54;;;;;;;4.13;2.00;;;6.40;99.90;;;;;;5138409;27;20257;-80
2022/11/21 14:16:46;;;;;;;3.47;1.70;;;6.50;99.90;;;;;;5139439;27;20228;-80
2022/11/21 14:19:17;;;;;;;6.20;2.17;;;6.40;99.90;;;;;;5137199;27;20257;-80
2022/11/21 14:21:45;;;;;;;5.83;3.53;;;6.30;99.90;;;;;;5136632;27;20622;-80
2022/11/21 14:24:16;;;;;;;17.33;8.67;;;6.30;99.90;;;;;;5136330;27;20177;-80
2022/11/21 14:26:47;;;;;;;4.20;2.43;;;6.30;99.90;;;;;;5120914;28;20207;-80
2022/11/21 14:29:25;;;;;;;2.93;2.27;;;6.20;99.90;;;;;;5128889;27;20647;-80
2022/11/21 14:31:51;;;;;;;4.17;2.13;;;6.20;99.90;;;;;;5140093;27;20156;-81
2022/11/21 14:34:31;;;;;;;4.03;1.67;;;6.10;99.90;;;;;;5140163;27;20175;-80
2022/11/21 14:37:03;;;;;;;4.10;2.00;;;6.10;99.90;;;;;;5120280;28;20524;-80
2022/11/21 14:39:32;;;;;;;5.70;2.30;;;6.10;99.90;;;;;;5120255;28;20744;-80
2022/11/21 14:42:01;;;;;;;4.60;2.33;;;6.00;99.90;;;;;;5118489;28;20182;-80
2022/11/21 14:44:27;;;;;;;3.90;2.03;;;6.00;99.90;;;;;;5120675;28;20186;-80
2022/11/21 14:47:14;;;;;;;5.37;2.10;;;6.00;99.90;;;;;;5119665;28;20207;-80
2022/11/21 14:49:51;;;;;;;5.83;2.13;;;5.90;99.90;;;;;;5121716;28;20201;-81
2022/11/21 14:52:25;;;;;;;4.60;2.43;;;5.80;99.90;;;;;;5135129;27;20179;-81
2022/11/21 14:54:55;;;;;;;6.70;2.53;;;5.80;99.90;;;;;;5141638;27;20182;-81
2022/11/21 14:57:35;;;;;;;4.30;2.43;;;5.60;99.90;;;;;;5140992;27;20645;-81
2022/11/21 15:00:04;;;;;;;5.93;1.80;;;5.40;99.90;;;;;;5142531;27;20171;-80
2022/11/21 15:02:31;;;;;;;5.50;2.07;;;5.20;99.90;;;;;;5143064;27;20167;-80
2022/11/21 15:05:06;;;;;;;4.03;2.10;;;5.20;99.90;;;;;;5141335;27;20541;-81
2022/11/21 15:07:42;;;;;;;3.37;2.50;;;5.30;99.90;;;;;;5141110;27;20202;-81
2022/11/21 15:10:12;;;;;;;8.00;3.00;;;5.20;99.90;;;;;;5143205;27;20155;-81
2022/11/21 15:12:48;;;;;;;3.93;2.23;;;5.10;99.90;;;;;;5141395;27;20167;-81
2022/11/21 15:15:27;;;;;;;5.67;3.63;;;4.90;99.90;;;;;;5141483;27;20408;-81
2022/11/21 15:17:59;;;;;;;6.80;4.80;;;4.60;99.90;;;;;;5140777;27;20203;-81
2022/11/21 15:20:27;;;;;;;8.50;4.60;;;4.70;99.90;;;;;;5141558;27;20631;-81
2022/11/21 15:22:58;;;;;;;10.40;3.63;;;4.70;99.90;;;;;;5143438;27;20453;-81
2022/11/21 15:25:29;;;;;;;8.70;4.73;;;4.60;99.90;;;;;;5141559;27;20194;-81
2022/11/21 15:27:58;;;;;;;4.37;3.80;;;4.50;99.90;;;;;;5141400;27;20595;-81
2022/11/21 15:30:29;;;;;;;7.57;4.00;;;4.40;99.90;;;;;;5143661;27;20400;-81
2022/11/21 15:32:59;;;;;;;13.47;4.30;;;4.40;99.90;;;;;;5143733;27;20631;-80
2022/11/21 15:35:39;;;;;;;11.57;4.50;;;4.20;99.90;;;;;;5143368;27;20203;-81
2022/11/21 15:38:32;;;;;;;9.67;4.97;;;4.20;99.90;;;;;;5142842;27;20174;-81
2022/11/21 15:41:23;;;;;;;11.40;6.93;;;4.10;99.90;;;;;;5142767;27;20640;-81
2022/11/21 15:44:15;;;;;;;10.53;7.70;;;4.00;99.90;;;;;;5144651;27;20304;-81
2022/11/21 15:46:41;;;;;;;8.97;4.33;;;4.00;99.90;;;;;;5131213;27;20476;-81
2022/11/21 15:49:09;;;;;;;7.50;3.90;;;3.90;99.90;;;;;;5144882;27;20893;-81
2022/11/21 15:51:36;;;;;;;6.50;4.03;;;3.80;99.90;;;;;;5141530;27;20171;-80
2022/11/21 15:54:03;;;;;;;12.90;4.00;;;3.80;99.90;;;;;;5139540;27;20400;-80
2022/11/21 15:56:29;;;;;;;7.00;3.33;;;3.70;99.90;;;;;;5137678;27;20194;-80
2022/11/21 15:58:55;;;;;;;5.13;3.40;;;3.70;99.90;;;;;;5138656;27;20204;-80
2022/11/21 16:01:23;;;;;;;7.40;3.90;;;3.60;99.90;;;;;;5138793;27;20416;-80
2022/11/21 16:03:58;;;;;;;9.70;4.87;;;3.60;99.90;;;;;;5137028;27;20193;-80
2022/11/21 16:06:24;;;;;;;7.83;4.30;;;3.60;99.90;;;;;;5137718;28;20467;-80
2022/11/21 16:08:50;;;;;;;7.27;4.33;;;3.50;99.90;;;;;;5137375;28;20416;-80
2022/11/21 16:11:32;;;;;;;8.10;2.97;;;3.50;99.90;;;;;;5138668;28;20266;-80
2022/11/21 16:14:02;;;;;;;3.30;3.00;;;3.40;99.90;;;;;;5137088;28;20248;-80
2022/11/21 16:16:30;;;;;;;5.50;2.97;;;3.40;99.90;;;;;;5138418;28;20428;-80
2022/11/21 16:18:56;;;;;;;3.60;2.80;;;3.40;99.90;;;;;;5137093;28;20423;-80
2022/11/21 16:21:22;;;;;;;3.47;2.70;;;3.30;99.90;;;;;;5139084;28;20409;-80
2022/11/21 16:23:48;;;;;;;5.23;2.63;;;3.40;99.90;;;;;;5138828;28;20206;-80
2022/11/21 16:26:14;;;;;;;3.03;2.67;;;3.30;99.90;;;;;;5137178;28;20458;-80
2022/11/21 16:28:40;;;;;;;6.60;3.37;;;3.30;99.90;;;;;;5138978;27;20428;-81
2022/11/21 16:31:06;;;;;;;6.47;3.70;;;3.30;99.90;;;;;;5140246;27;20409;-80
2022/11/21 16:33:34;;;;;;;6.37;3.43;;;3.30;99.90;;;;;;5141371;27;20171;-79
2022/11/21 16:35:59;;;;;;;58.70;26.80;;;3.20;99.90;;;;;;5142369;27;20424;-79
2022/11/21 16:38:27;;;;;;;8.93;5.70;;;3.10;99.90;;;;;;5141019;27;20548;-79
2022/11/21 16:40:55;;;;;;;4.23;3.13;;;3.10;99.90;;;;;;5142497;27;20624;-79
2022/11/21 16:43:22;;;;;;;3.73;3.30;;;3.10;99.90;;;;;;5140098;27;20434;-79
2022/11/21 16:45:47;;;;;;;3.73;2.77;;;3.00;99.90;;;;;;5139953;27;20439;-79
2022/11/21 16:48:13;;;;;;;5.13;3.80;;;3.00;99.90;;;;;;5139949;27;20451;-79
2022/11/21 16:50:39;;;;;;;5.37;3.80;;;3.00;99.90;;;;;;5140159;27;20178;-79
2022/11/21 16:53:04;;;;;;;5.77;4.10;;;3.00;99.90;;;;;;5140974;27;20400;-79
2022/11/21 16:55:30;;;;;;;5.80;3.97;;;2.90;99.90;;;;;;5139174;27;20198;-79
2022/11/21 16:57:59;;;;;;;7.63;4.03;;;2.90;99.90;;;;;;5140425;27;20223;-79
2022/11/21 17:00:25;;;;;;;6.80;4.60;;;2.90;99.90;;;;;;5140194;27;20170;-79
2022/11/21 17:02:53;;;;;;;5.97;4.20;;;2.90;99.90;;;;;;5139439;27;20444;-79
2022/11/21 17:05:19;;;;;;;7.07;4.67;;;2.90;99.90;;;;;;5138921;27;20195;-80
2022/11/21 17:07:45;;;;;;;8.43;5.30;;;2.90;99.90;;;;;;5138891;27;20948;-79
2022/11/21 17:10:11;;;;;;;4.97;3.30;;;2.90;99.90;;;;;;5138890;27;20407;-79
2022/11/21 17:12:38;;;;;;;7.40;4.93;;;2.90;99.90;;;;;;5140790;27;20163;-80
2022/11/21 17:15:05;;;;;;;7.20;4.60;;;2.80;99.90;;;;;;5143946;27;20167;-79
2022/11/21 17:17:30;;;;;;;6.77;5.13;;;2.80;99.90;;;;;;5142616;27;20411;-80
2022/11/21 17:19:56;;;;;;;6.43;3.43;;;2.80;99.90;;;;;;5144214;27;20397;-79
2022/11/21 17:22:24;;;;;;;3.63;3.00;;;2.80;99.90;;;;;;5143514;27;20171;-79
2022/11/21 17:24:52;;;;;;;4.50;3.17;;;2.80;99.90;;;;;;5142964;27;20284;-80
2022/11/21 17:27:22;;;;;;;4.70;4.30;;;2.80;99.90;;;;;;5143595;27;20463;-80
2022/11/21 17:29:48;;;;;;;3.53;3.13;;;2.80;99.90;;;;;;5142202;27;20412;-79
2022/11/21 17:32:14;;;;;;;4.67;3.80;;;2.70;99.90;;;;;;5142215;27;20427;-79
2022/11/21 17:34:39;;;;;;;8.73;5.87;;;2.70;99.90;;;;;;5144000;27;20216;-79
2022/11/21 17:37:05;;;;;;;14.00;8.50;;;2.70;99.90;;;;;;5143979;27;20199;-80
2022/11/21 17:39:31;;;;;;;13.27;7.07;;;2.70;99.90;;;;;;5144900;27;20171;-80
2022/11/21 17:41:58;;;;;;;9.93;7.37;;;2.70;99.90;;;;;;5142104;27;20683;-80
2022/11/21 17:44:24;;;;;;;6.07;4.60;;;2.60;99.90;;;;;;5141997;27;20551;-80
2022/11/21 17:46:50;;;;;;;5.10;4.03;;;2.60;99.90;;;;;;5143486;27;20477;-80
2022/11/21 17:49:16;;;;;;;4.10;3.47;;;2.60;99.90;;;;;;5140944;27;20183;-79
2022/11/21 17:51:41;;;;;;;7.07;4.03;;;2.60;99.90;;;;;;5125699;27;20656;-79
2022/11/21 17:54:07;;;;;;;4.60;4.10;;;2.50;99.90;;;;;;5135464;27;20182;-80
2022/11/21 17:56:36;;;;;;;6.10;3.93;;;2.50;99.90;;;;;;5141586;27;20195;-80
2022/11/21 17:59:02;;;;;;;6.97;5.57;;;2.50;99.90;;;;;;5125250;27;20413;-81
